createdAt,value
2024-01-11T00:02:23.902Z,23.93
2024-01-11T00:04:52.355Z,22.57
2024-01-11T00:07:20.952Z,24.47
2024-01-11T00:09:49.295Z,22.47
2024-01-11T00:12:18.927Z,23.20
2024-01-11T00:14:47.320Z,22.83
2024-01-11T00:17:16.993Z,23.93
2024-01-11T00:19:45.317Z,23.03
2024-01-11T00:22:13.682Z,23.70
2024-01-11T00:24:42.533Z,27.63
2024-01-11T00:27:10.835Z,24.73
2024-01-11T00:29:41.783Z,28.80
2024-01-11T00:32:10.283Z,27.97
2024-01-11T00:34:39.173Z,26.37
2024-01-11T00:37:07.739Z,24.13
2024-01-11T00:39:36.060Z,23.87
2024-01-11T00:42:04.326Z,22.50
2024-01-11T00:44:34.065Z,21.77
2024-01-11T00:47:03.837Z,25.00
2024-01-11T00:49:32.273Z,26.67
2024-01-11T00:52:00.746Z,28.17
2024-01-11T00:54:29.090Z,28.30
2024-01-11T00:56:57.446Z,27.07
2024-01-11T00:59:25.814Z,24.67
2024-01-11T01:01:54.316Z,25.27
2024-01-11T01:04:24.001Z,24.17
2024-01-11T01:06:52.451Z,27.67
2024-01-11T01:09:20.726Z,26.87
2024-01-11T01:11:48.967Z,23.87
2024-01-11T01:14:17.423Z,25.80
2024-01-11T01:16:45.856Z,27.00
2024-01-11T01:19:14.287Z,29.60
2024-01-11T01:21:44.054Z,28.73
2024-01-11T01:24:13.215Z,24.30
2024-01-11T01:26:41.846Z,27.10
2024-01-11T01:29:10.349Z,29.23
2024-01-11T01:31:40.911Z,27.30
2024-01-11T01:34:10.092Z,28.57
2024-01-11T01:36:38.625Z,27.10
2024-01-11T01:39:08.558Z,29.50
2024-01-11T01:41:37.091Z,31.90
2024-01-11T01:44:06.126Z,32.17
2024-01-11T01:46:35.609Z,32.30
2024-01-11T01:49:06.082Z,30.17
2024-01-11T01:51:39.126Z,30.47
2024-01-11T01:54:08.907Z,32.27
2024-01-11T01:56:37.498Z,28.10
2024-01-11T01:59:06.635Z,26.23
2024-01-11T02:01:35.754Z,28.80
2024-01-11T02:04:04.656Z,31.00
2024-01-11T02:06:36.979Z,31.73
2024-01-11T02:09:05.767Z,30.43
2024-01-11T02:11:36.172Z,33.77
2024-01-11T02:14:05.358Z,32.20
2024-01-11T02:16:33.888Z,30.03
2024-01-11T02:19:02.718Z,29.33
2024-01-11T02:21:33.134Z,28.17
2024-01-11T02:24:06.842Z,28.93
2024-01-11T02:26:35.631Z,32.17
2024-01-11T02:29:04.565Z,30.07
2024-01-11T02:31:33.350Z,30.93
2024-01-11T02:34:01.874Z,31.80
2024-01-11T02:36:30.315Z,33.17
2024-01-11T02:38:58.665Z,33.93
2024-01-11T02:41:29.191Z,31.70
2024-01-11T02:43:58.079Z,33.87
2024-01-11T02:46:26.419Z,35.47
2024-01-11T02:48:54.839Z,35.00
2024-01-11T02:51:23.333Z,34.10
2024-01-11T02:53:51.588Z,34.10
2024-01-11T02:56:19.979Z,34.00
2024-01-11T02:58:49.636Z,32.83
2024-01-11T03:01:18.132Z,36.43
2024-01-11T03:03:48.132Z,32.77
2024-01-11T03:06:22.587Z,31.27
2024-01-11T03:08:51.459Z,32.33
2024-01-11T03:11:19.762Z,32.40
2024-01-11T03:13:51.083Z,36.03
2024-01-11T03:16:19.307Z,34.07
2024-01-11T03:18:47.675Z,37.93
2024-01-11T03:21:16.134Z,33.77
2024-01-11T03:23:44.525Z,38.10
2024-01-11T03:26:16.674Z,33.50
2024-01-11T03:28:45.163Z,35.93
2024-01-11T03:31:14.873Z,33.37
2024-01-11T03:33:43.277Z,34.67
2024-01-11T03:36:12.974Z,32.27
2024-01-11T03:38:41.391Z,38.50
2024-01-11T03:41:12.910Z,37.43
2024-01-11T03:43:41.442Z,34.37
2024-01-11T03:46:09.825Z,35.30
2024-01-11T03:48:39.736Z,34.90
2024-01-11T03:51:08.475Z,37.13
2024-01-11T03:53:38.853Z,33.80
2024-01-11T03:56:07.809Z,32.10
2024-01-11T03:58:40.385Z,38.80
2024-01-11T04:01:11.413Z,29.67
2024-01-11T04:03:41.314Z,35.37
2024-01-11T04:06:10.420Z,36.73
2024-01-11T04:08:38.983Z,31.77
2024-01-11T04:11:07.512Z,31.97
2024-01-11T04:13:36.062Z,32.50
2024-01-11T04:16:10.226Z,34.03
2024-01-11T04:18:38.791Z,35.93
2024-01-11T04:21:08.524Z,33.20
2024-01-11T04:23:36.942Z,32.33
2024-01-11T04:26:05.518Z,30.80
2024-01-11T04:28:33.863Z,31.27
2024-01-11T04:31:02.266Z,32.37
2024-01-11T04:33:30.562Z,32.07
2024-01-11T04:35:58.907Z,32.27
2024-01-11T04:38:28.595Z,31.20
2024-01-11T04:40:57.578Z,31.20
2024-01-11T04:43:26.056Z,34.47
2024-01-11T04:45:54.404Z,34.40
2024-01-11T04:48:22.859Z,33.40
2024-01-11T04:50:51.530Z,29.03
2024-01-11T04:53:21.225Z,31.33
2024-01-11T04:55:50.972Z,30.00
2024-01-11T04:58:19.269Z,29.57
2024-01-11T05:00:47.775Z,35.90
2024-01-11T05:03:16.035Z,29.23
2024-01-11T05:05:44.495Z,30.23
2024-01-11T05:08:13.135Z,29.50
2024-01-11T05:10:41.718Z,27.93
2024-01-11T05:13:12.918Z,28.43
2024-01-11T05:15:41.311Z,29.03
2024-01-11T05:18:10.034Z,27.07
2024-01-11T05:20:38.514Z,28.53
2024-01-11T05:23:06.935Z,32.03
2024-01-11T05:25:35.710Z,29.90
2024-01-11T05:28:05.268Z,26.50
2024-01-11T05:30:35.877Z,32.57
2024-01-11T05:33:05.512Z,28.73
2024-01-11T05:35:34.524Z,30.20
2024-01-11T05:38:03.157Z,27.23
2024-01-11T05:40:31.652Z,23.50
2024-01-11T05:43:00.195Z,29.97
2024-01-11T05:45:36.174Z,28.93
2024-01-11T05:48:18.332Z,32.30
2024-01-11T05:50:46.757Z,27.10
2024-01-11T05:53:15.589Z,28.30
2024-01-11T05:55:44.069Z,29.10
2024-01-11T05:58:12.389Z,27.20
2024-01-11T06:00:41.697Z,28.43
2024-01-11T06:03:10.133Z,26.90
2024-01-11T06:05:40.095Z,32.93
2024-01-11T06:08:08.620Z,29.23
2024-01-11T06:10:37.005Z,28.00
2024-01-11T06:13:06.347Z,30.27
2024-01-11T06:15:34.730Z,26.43
2024-01-11T06:18:03.654Z,26.97
2024-01-11T06:20:32.384Z,25.30
2024-01-11T06:23:02.222Z,27.33
2024-01-11T06:25:30.524Z,30.83
2024-01-11T06:27:58.752Z,27.87
2024-01-11T06:30:27.103Z,29.13
2024-01-11T06:32:55.509Z,29.90
2024-01-11T06:35:23.925Z,28.47
2024-01-11T06:37:52.299Z,33.33
2024-01-11T06:40:22.048Z,31.70
2024-01-11T06:42:50.344Z,28.63
2024-01-11T06:45:18.643Z,30.63
2024-01-11T06:47:48.148Z,30.27
2024-01-11T06:50:16.684Z,29.13
2024-01-11T06:52:45.167Z,27.60
2024-01-11T06:55:16.524Z,28.83
2024-01-11T06:57:49.420Z,28.27
2024-01-11T07:00:17.857Z,27.03
2024-01-11T07:02:46.465Z,30.37
2024-01-11T07:05:15.150Z,30.83
2024-01-11T07:07:43.471Z,29.03
2024-01-11T07:10:13.979Z,29.73
2024-01-11T07:12:44.032Z,31.10
2024-01-11T07:15:14.148Z,31.50
2024-01-11T07:17:42.594Z,31.80
2024-01-11T07:20:12.285Z,30.60
2024-01-11T07:22:42.507Z,33.57
2024-01-11T07:25:11.252Z,27.83
2024-01-11T07:27:39.641Z,28.93
2024-01-11T07:30:09.847Z,32.63
2024-01-11T07:32:39.726Z,32.07
2024-01-11T07:35:12.152Z,33.27
2024-01-11T07:37:42.627Z,28.40
2024-01-11T07:40:12.317Z,32.20
2024-01-11T07:42:40.839Z,29.13
2024-01-11T07:45:11.316Z,28.83
2024-01-11T07:47:41.321Z,26.77
2024-01-11T07:50:11.152Z,38.37
2024-01-11T07:52:40.073Z,28.80
2024-01-11T07:55:09.419Z,29.63
2024-01-11T07:57:38.098Z,28.40
2024-01-11T08:00:08.080Z,30.07
2024-01-11T08:02:39.061Z,31.50
2024-01-11T08:05:09.705Z,28.77
2024-01-11T08:07:38.146Z,33.47
2024-01-11T08:10:08.016Z,28.30
2024-01-11T08:12:36.415Z,33.73
2024-01-11T08:15:06.448Z,30.43
2024-01-11T08:17:34.708Z,31.83
2024-01-11T08:20:03.218Z,29.70
2024-01-11T08:22:35.703Z,30.53
2024-01-11T08:25:05.708Z,30.33
2024-01-11T08:27:34.440Z,32.33
2024-01-11T08:30:03.449Z,31.00
2024-01-11T08:32:32.743Z,30.57
2024-01-11T08:35:01.809Z,30.20
2024-01-11T08:37:30.246Z,32.53
2024-01-11T08:40:00.210Z,30.33
2024-01-11T08:42:29.422Z,32.70
2024-01-11T08:44:58.800Z,32.27
2024-01-11T08:47:27.354Z,28.30
2024-01-11T08:49:57.239Z,33.77
2024-01-11T08:52:26.678Z,30.90
2024-01-11T08:54:54.959Z,30.57
2024-01-11T08:57:24.554Z,34.03
2024-01-11T08:59:52.843Z,31.60
2024-01-11T09:02:23.998Z,35.77
2024-01-11T09:04:54.367Z,31.47
2024-01-11T09:07:22.591Z,30.37
2024-01-11T09:09:56.249Z,30.43
2024-01-11T09:12:26.962Z,33.00
2024-01-11T09:14:55.863Z,31.30
2024-01-11T09:17:24.394Z,32.90
2024-01-11T09:19:53.366Z,31.77
2024-01-11T09:22:21.666Z,32.50
2024-01-11T09:24:50.017Z,31.90
2024-01-11T09:27:18.164Z,27.70
2024-01-11T09:29:48.169Z,34.50
2024-01-11T09:32:16.512Z,31.47
2024-01-11T09:34:46.902Z,32.90
2024-01-11T09:37:15.239Z,30.03
2024-01-11T09:39:45.137Z,28.60
2024-01-11T09:42:14.064Z,29.63
2024-01-11T09:44:43.763Z,28.37
2024-01-11T09:47:16.502Z,29.73
2024-01-11T09:49:46.794Z,29.13
2024-01-11T09:52:17.168Z,28.57
2024-01-11T09:54:45.410Z,26.03
2024-01-11T09:57:13.749Z,29.77
2024-01-11T09:59:43.569Z,27.63
2024-01-11T10:02:14.889Z,31.33
2024-01-11T10:04:45.316Z,30.13
2024-01-11T10:07:21.904Z,27.07
2024-01-11T10:09:50.700Z,25.27
2024-01-11T10:12:21.560Z,28.37
2024-01-11T10:14:50.032Z,27.00
2024-01-11T10:17:22.847Z,27.13
2024-01-11T10:19:52.826Z,29.17
2024-01-11T10:22:24.991Z,25.13
2024-01-11T10:25:12.214Z,25.67
2024-01-11T10:27:44.096Z,26.00
2024-01-11T10:30:14.779Z,26.47
2024-01-11T10:32:45.410Z,26.47
2024-01-11T10:35:18.016Z,27.20
2024-01-11T10:37:47.149Z,28.53
2024-01-11T10:40:17.131Z,25.40
2024-01-11T10:42:47.020Z,25.03
2024-01-11T10:45:18.802Z,23.57
2024-01-11T10:47:54.367Z,23.30
2024-01-11T10:50:25.984Z,24.83
2024-01-11T10:53:07.298Z,25.23
2024-01-11T10:55:36.850Z,23.77
2024-01-11T10:58:07.103Z,22.35
2024-01-11T11:00:37.631Z,21.93
2024-01-11T11:03:09.128Z,25.45
2024-01-11T11:05:38.866Z,23.07
2024-01-11T11:08:09.390Z,24.27
2024-01-11T11:10:38.979Z,24.55
2024-01-11T11:13:08.111Z,27.23
2024-01-11T11:15:39.022Z,23.40
2024-01-11T11:18:09.174Z,25.63
2024-01-11T11:20:43.277Z,24.00
2024-01-11T11:23:13.509Z,22.20
2024-01-11T11:25:43.664Z,22.38
2024-01-11T11:28:14.458Z,28.20
2024-01-11T11:30:44.280Z,26.83
2024-01-11T11:33:19.306Z,21.53
2024-01-11T11:35:54.014Z,25.27
2024-01-11T11:38:24.288Z,24.75
2024-01-11T11:40:58.480Z,21.63
2024-01-11T11:43:28.607Z,23.30
2024-01-11T11:45:59.680Z,25.25
2024-01-11T11:48:55.859Z,21.40
2024-01-11T11:51:27.984Z,21.52
2024-01-11T11:53:58.094Z,23.55
2024-01-11T11:56:26.820Z,23.80
2024-01-11T11:58:56.728Z,22.70
2024-01-11T12:01:24.857Z,21.42
2024-01-11T12:03:55.442Z,22.80
2024-01-11T12:06:26.347Z,18.90
2024-01-11T12:08:57.696Z,17.73
2024-01-11T12:11:27.741Z,16.88
2024-01-11T12:13:58.919Z,15.68
2024-01-11T12:16:28.619Z,17.73
2024-01-11T12:18:58.674Z,15.75
2024-01-11T12:21:28.231Z,16.17
2024-01-11T12:23:57.026Z,16.50
2024-01-11T12:26:25.464Z,17.25
2024-01-11T12:28:54.187Z,16.90
2024-01-11T12:31:24.424Z,17.77
2024-01-11T12:33:53.249Z,14.82
2024-01-11T12:36:23.190Z,13.68
2024-01-11T12:38:53.258Z,16.85
2024-01-11T12:41:41.361Z,13.82
2024-01-11T12:44:09.793Z,14.70
2024-01-11T12:46:38.090Z,14.45
2024-01-11T12:49:06.605Z,15.70
2024-01-11T12:51:38.698Z,15.52
2024-01-11T12:54:12.422Z,14.63
2024-01-11T12:56:45.969Z,15.13
2024-01-11T12:59:17.411Z,14.65
2024-01-11T13:01:45.712Z,13.77
2024-01-11T13:04:14.504Z,19.92
2024-01-11T13:06:44.307Z,15.80
2024-01-11T13:09:12.639Z,16.30
2024-01-11T13:11:42.715Z,18.67
2024-01-11T13:14:15.811Z,19.05
2024-01-11T13:16:44.468Z,20.80
2024-01-11T13:19:23.679Z,25.30
2024-01-11T13:21:58.087Z,20.42
2024-01-11T13:24:26.278Z,20.95
2024-01-11T13:26:56.775Z,16.63
2024-01-11T13:29:25.079Z,17.90
2024-01-11T13:31:53.449Z,17.90
2024-01-11T13:34:21.879Z,18.15
2024-01-11T13:36:50.328Z,16.70
2024-01-11T13:39:21.541Z,20.30
2024-01-11T13:41:49.911Z,22.17
2024-01-11T13:44:18.992Z,24.42
2024-01-11T13:46:48.009Z,24.35
2024-01-11T13:49:17.240Z,26.02
2024-01-11T13:51:53.867Z,23.17
2024-01-11T13:54:30.305Z,24.73
2024-01-11T13:56:58.878Z,26.98
2024-01-11T13:59:27.393Z,25.33
2024-01-11T14:01:55.818Z,25.73
2024-01-11T14:04:25.366Z,25.98
2024-01-11T14:06:54.136Z,24.83
2024-01-11T14:09:24.069Z,26.50
2024-01-11T14:11:54.162Z,26.48
2024-01-11T14:14:22.943Z,23.05
2024-01-11T14:16:52.447Z,25.75
2024-01-11T14:19:21.147Z,25.10
2024-01-11T14:21:50.075Z,26.23
2024-01-11T14:24:26.228Z,22.15
2024-01-11T14:26:59.480Z,22.33
2024-01-11T14:29:27.932Z,22.20
2024-01-11T14:31:56.197Z,23.70
2024-01-11T14:34:26.685Z,22.33
2024-01-11T14:36:59.923Z,19.85
2024-01-11T14:39:28.191Z,20.92
2024-01-11T14:41:56.646Z,24.33
2024-01-11T14:44:26.299Z,25.00
2024-01-11T14:46:54.732Z,22.35
2024-01-11T14:49:23.513Z,19.85
2024-01-11T14:51:52.368Z,20.77
2024-01-11T14:54:21.494Z,19.33
2024-01-11T14:56:50.101Z,23.95
2024-01-11T14:59:18.582Z,20.42
2024-01-11T15:01:50.171Z,25.92
2024-01-11T15:04:19.040Z,20.27
2024-01-11T15:06:47.499Z,18.38
2024-01-11T15:09:16.414Z,19.38
2024-01-11T15:11:45.140Z,18.30
2024-01-11T15:14:14.897Z,18.13
2024-01-11T15:16:45.619Z,19.45
2024-01-11T15:19:18.289Z,19.23
2024-01-11T15:21:49.993Z,17.02
2024-01-11T15:24:21.299Z,19.08
2024-01-11T15:26:50.642Z,17.23
2024-01-11T15:29:19.557Z,18.20
2024-01-11T15:31:49.166Z,18.92
2024-01-11T15:34:19.619Z,18.52
2024-01-11T15:36:48.488Z,15.98
2024-01-11T15:39:25.245Z,19.15
2024-01-11T15:41:58.558Z,19.55
2024-01-11T15:44:29.018Z,20.15
2024-01-11T15:46:59.229Z,18.42
2024-01-11T15:49:28.997Z,19.42
2024-01-11T15:51:57.904Z,18.17
2024-01-11T15:54:27.283Z,22.63
2024-01-11T15:56:56.292Z,19.17
2024-01-11T15:59:27.197Z,18.27
2024-01-11T16:02:03.394Z,18.92
2024-01-11T16:04:37.126Z,19.92
2024-01-11T16:07:05.935Z,18.77
2024-01-11T16:09:34.480Z,21.27
2024-01-11T16:12:05.602Z,20.30
2024-01-11T16:14:35.301Z,23.15
2024-01-11T16:17:04.031Z,21.13
2024-01-11T16:19:35.009Z,20.35
2024-01-11T16:22:05.525Z,22.60
2024-01-11T16:24:33.915Z,22.60
2024-01-11T16:27:05.955Z,25.60
2024-01-11T16:29:34.503Z,25.27
2024-01-11T16:32:03.056Z,23.83
2024-01-11T16:34:32.612Z,24.08
2024-01-11T16:37:01.148Z,25.98
2024-01-11T16:39:31.572Z,23.70
2024-01-11T16:42:00.567Z,21.42
2024-01-11T16:44:29.573Z,22.50
2024-01-11T16:46:57.916Z,24.10
2024-01-11T16:49:26.306Z,21.40
2024-01-11T16:51:57.434Z,21.45
2024-01-11T16:54:25.888Z,24.02
2024-01-11T16:56:56.384Z,22.40
2024-01-11T16:59:28.136Z,27.08
2024-01-11T17:01:56.491Z,26.42
2024-01-11T17:04:24.954Z,25.42
2024-01-11T17:06:53.450Z,27.77
2024-01-11T17:09:21.795Z,26.80
2024-01-11T17:11:50.264Z,30.48
2024-01-11T17:14:19.873Z,26.02
2024-01-11T17:16:48.366Z,28.23
2024-01-11T17:19:16.604Z,24.63
2024-01-11T17:21:45.087Z,26.58
2024-01-11T17:24:13.451Z,24.85
2024-01-11T17:26:43.927Z,29.27
2024-01-11T17:29:12.273Z,24.63
2024-01-11T17:31:45.657Z,25.05
2024-01-11T17:34:14.166Z,25.83
2024-01-11T17:36:42.511Z,24.90
2024-01-11T17:39:12.163Z,24.95
2024-01-11T17:41:42.383Z,27.40
2024-01-11T17:44:11.275Z,29.20
2024-01-11T17:46:41.094Z,28.75
2024-01-11T17:49:10.192Z,30.60
2024-01-11T17:51:39.104Z,28.00
2024-01-11T17:54:07.482Z,31.30
2024-01-11T17:56:35.961Z,31.23
2024-01-11T17:59:06.413Z,31.70
2024-01-11T18:01:34.883Z,32.33
2024-01-11T18:05:24.184Z,31.00
2024-01-11T18:08:09.722Z,30.88
2024-01-11T18:10:38.790Z,31.38
2024-01-11T18:17:59.994Z,29.20
2024-01-11T18:22:03.984Z,35.42
2024-01-11T18:25:33.217Z,33.63
2024-01-11T18:33:35.447Z,31.77
2024-01-11T18:36:59.923Z,31.63
2024-01-11T18:47:25.357Z,37.38
2024-01-11T18:49:58.318Z,36.08
2024-01-11T18:50:10.021Z,36.05
2024-01-11T18:53:39.202Z,39.58
2024-01-11T18:57:37.787Z,41.78
2024-01-11T19:03:01.362Z,41.28
2024-01-11T19:05:09.200Z,44.95
2024-01-11T19:09:36.530Z,42.88
2024-01-11T19:13:18.072Z,40.08
2024-01-11T19:16:42.530Z,41.15
2024-01-11T19:19:43.936Z,43.47
2024-01-11T19:23:48.976Z,49.20
2024-01-11T19:38:48.370Z,47.03
2024-01-11T19:42:14.756Z,50.30
2024-01-11T19:49:00.344Z,50.55
2024-01-11T19:54:08.903Z,49.47
2024-01-11T19:58:43.272Z,53.25
2024-01-11T20:01:24.617Z,53.10
2024-01-11T20:04:48.269Z,47.08
2024-01-11T20:11:48.073Z,50.92
2024-01-11T20:19:14.375Z,52.08
2024-01-11T20:22:31.806Z,55.67
2024-01-11T20:26:31.804Z,49.60
2024-01-11T20:33:05.780Z,52.30
2024-01-11T20:40:18.625Z,48.90
2024-01-11T20:43:54.520Z,48.72
2024-01-11T20:47:08.009Z,51.55
2024-01-11T20:51:09.033Z,51.22
2024-01-11T20:54:34.810Z,54.05
2024-01-11T20:58:30.952Z,49.92
2024-01-11T21:10:24.659Z,50.42
2024-01-11T21:21:30.172Z,58.05
2024-01-11T21:28:57.816Z,53.15
2024-01-11T21:32:31.534Z,52.53
2024-01-11T21:35:43.277Z,58.20
2024-01-11T21:43:40.158Z,51.50
2024-01-11T21:48:20.916Z,50.40
2024-01-11T21:54:52.408Z,57.13
2024-01-11T21:58:28.019Z,58.08
2024-01-11T22:05:38.098Z,54.70
2024-01-11T22:12:19.269Z,55.38
2024-01-11T22:20:03.616Z,55.97
2024-01-11T22:23:45.560Z,52.15
2024-01-11T22:27:52.746Z,49.83
2024-01-11T22:30:58.294Z,50.88
2024-01-11T22:34:24.638Z,49.78
2024-01-11T22:45:19.150Z,57.03
2024-01-11T22:49:06.454Z,50.28
2024-01-11T22:56:51.515Z,58.38
2024-01-11T23:03:54.300Z,51.63
2024-01-11T23:07:17.005Z,57.97
2024-01-11T23:15:14.291Z,57.38
2024-01-11T23:25:43.581Z,54.80
2024-01-11T23:28:58.056Z,55.50
2024-01-11T23:32:27.907Z,61.10
2024-01-11T23:42:47.789Z,53.72
2024-01-11T23:46:06.301Z,60.08
